Turkeyfoot, Pennsylvania
Current Conditions -  °F | °C
As of 10:53 AM on Saturday 25 Oct 2014 (Local Time) from KHGR Reporting Station
Clear Clear  
Wind Chill: 59°   Ceiling: Unl
Heat Index: 59°   Visibility: 10mi
Dew Point: 40°   Wind: 13mph
Humidity: 49%   Direction: 220°SW
Pressure: 29.92"   Gusts: NA
Location:  39.9438°N, 77.6827°W
Report Text: KHGR 251453Z 22011KT 10SM CLR 15/04 A2992 RMK AO2 SLP141 T01500044 58013
Loading
Personal Weather Stations






























Interactive Weather Map
Tropical Storm Tracking
New forecast layout! Learn more

10-Day Weather Forecast

Advertisements
Track Severe Weather on mobile